sensor_id;sensor_type;location;lat;lon;timestamp;temperature;humidity
60033;DHT22;45905;50.570;10.428;2023-02-26T00:01:39;-1.00;99.90
60033;DHT22;45905;50.570;10.428;2023-02-26T00:04:07;-1.10;99.90
60033;DHT22;45905;50.570;10.428;2023-02-26T00:06:37;-0.60;99.90
60033;DHT22;45905;50.570;10.428;2023-02-26T00:09:19;-1.10;99.90
60033;DHT22;45905;50.570;10.428;2023-02-26T00:11:46;-1.10;99.90
60033;DHT22;45905;50.570;10.428;2023-02-26T00:14:15;-1.30;99.90
60033;DHT22;45905;50.570;10.428;2023-02-26T00:16:48;-1.10;99.90
60033;DHT22;45905;50.570;10.428;2023-02-26T00:19:24;-1.10;99.90
60033;DHT22;45905;50.570;10.428;2023-02-26T00:21:51;-1.20;99.90
60033;DHT22;45905;50.570;10.428;2023-02-26T00:24:18;-1.20;99.90
60033;DHT22;45905;50.570;10.428;2023-02-26T00:26:46;-1.30;99.90
60033;DHT22;45905;50.570;10.428;2023-02-26T00:29:13;-1.30;99.90
60033;DHT22;45905;50.570;10.428;2023-02-26T00:31:41;-1.40;99.90
60033;DHT22;45905;50.570;10.428;2023-02-26T00:34:11;-1.40;99.90
60033;DHT22;45905;50.570;10.428;2023-02-26T00:36:49;-1.40;99.90
60033;DHT22;45905;50.570;10.428;2023-02-26T00:42:10;-1.40;99.90
60033;DHT22;45905;50.570;10.428;2023-02-26T00:44:38;-1.40;99.90
60033;DHT22;45905;50.570;10.428;2023-02-26T00:52:54;-1.40;99.90
60033;DHT22;45905;50.570;10.428;2023-02-26T00:55:28;-1.40;99.90
60033;DHT22;45905;50.570;10.428;2023-02-26T00:57:55;-1.40;99.90
60033;DHT22;45905;50.570;10.428;2023-02-26T01:00:23;-1.40;99.90
60033;DHT22;45905;50.570;10.428;2023-02-26T01:02:50;-1.90;99.90
60033;DHT22;45905;50.570;10.428;2023-02-26T01:05:18;-1.50;99.90
60033;DHT22;45905;50.570;10.428;2023-02-26T01:10:50;-1.50;99.90
60033;DHT22;45905;50.570;10.428;2023-02-26T01:13:17;-1.60;99.90
60033;DHT22;45905;50.570;10.428;2023-02-26T01:15:51;-1.60;99.90
60033;DHT22;45905;50.570;10.428;2023-02-26T01:18:47;-1.60;99.90
60033;DHT22;45905;50.570;10.428;2023-02-26T01:21:35;-1.60;99.90
60033;DHT22;45905;50.570;10.428;2023-02-26T01:24:12;-1.60;99.90
60033;DHT22;45905;50.570;10.428;2023-02-26T01:26:42;-1.60;99.90
60033;DHT22;45905;50.570;10.428;2023-02-26T01:29:10;-1.60;99.90
60033;DHT22;45905;50.570;10.428;2023-02-26T01:40:16;-2.50;99.90
60033;DHT22;45905;50.570;10.428;2023-02-26T01:42:49;-1.70;99.90
60033;DHT22;45905;50.570;10.428;2023-02-26T01:45:28;-1.70;99.90
60033;DHT22;45905;50.570;10.428;2023-02-26T01:48:15;-1.70;99.90
60033;DHT22;45905;50.570;10.428;2023-02-26T01:50:48;-1.70;99.90
60033;DHT22;45905;50.570;10.428;2023-02-26T01:53:16;-1.70;99.90
60033;DHT22;45905;50.570;10.428;2023-02-26T01:55:47;-1.70;99.90
60033;DHT22;45905;50.570;10.428;2023-02-26T01:58:22;-1.70;99.90
60033;DHT22;45905;50.570;10.428;2023-02-26T02:00:54;-1.70;99.90
60033;DHT22;45905;50.570;10.428;2023-02-26T02:03:25;-1.70;99.90
60033;DHT22;45905;50.570;10.428;2023-02-26T02:06:08;-1.70;99.90
60033;DHT22;45905;50.570;10.428;2023-02-26T02:08:40;-0.90;99.90
60033;DHT22;45905;50.570;10.428;2023-02-26T02:11:09;-1.00;99.90
60033;DHT22;45905;50.570;10.428;2023-02-26T02:17:05;-1.80;99.90
60033;DHT22;45905;50.570;10.428;2023-02-26T02:23:07;-1.70;99.90
60033;DHT22;45905;50.570;10.428;2023-02-26T02:28:26;-1.80;99.90
60033;DHT22;45905;50.570;10.428;2023-02-26T02:31:18;-1.80;99.90
60033;DHT22;45905;50.570;10.428;2023-02-26T02:34:16;-1.70;99.90
60033;DHT22;45905;50.570;10.428;2023-02-26T02:39:59;-1.20;99.90
60033;DHT22;45905;50.570;10.428;2023-02-26T02:42:39;-1.90;99.90
60033;DHT22;45905;50.570;10.428;2023-02-26T02:45:18;-1.80;99.90
60033;DHT22;45905;50.570;10.428;2023-02-26T02:47:56;-1.70;99.90
60033;DHT22;45905;50.570;10.428;2023-02-26T02:50:37;-1.80;99.90
60033;DHT22;45905;50.570;10.428;2023-02-26T02:53:15;-1.70;99.90
60033;DHT22;45905;50.570;10.428;2023-02-26T02:55:52;-1.80;99.90
60033;DHT22;45905;50.570;10.428;2023-02-26T02:58:29;-1.70;99.90
60033;DHT22;45905;50.570;10.428;2023-02-26T03:01:06;-1.80;99.90
60033;DHT22;45905;50.570;10.428;2023-02-26T03:06:30;-1.80;99.90
60033;DHT22;45905;50.570;10.428;2023-02-26T03:09:00;-1.80;99.90
60033;DHT22;45905;50.570;10.428;2023-02-26T03:11:30;-1.90;99.90
60033;DHT22;45905;50.570;10.428;2023-02-26T03:13:59;-1.90;99.90
60033;DHT22;45905;50.570;10.428;2023-02-26T03:22:42;-1.80;99.90
60033;DHT22;45905;50.570;10.428;2023-02-26T03:34:11;-1.80;99.90
60033;DHT22;45905;50.570;10.428;2023-02-26T03:39:40;-1.80;99.90
60033;DHT22;45905;50.570;10.428;2023-02-26T03:42:16;-1.80;99.90
60033;DHT22;45905;50.570;10.428;2023-02-26T03:45:19;-1.80;99.90
60033;DHT22;45905;50.570;10.428;2023-02-26T03:47:50;-1.80;99.90
60033;DHT22;45905;50.570;10.428;2023-02-26T03:50:43;-1.30;99.90
60033;DHT22;45905;50.570;10.428;2023-02-26T03:53:56;-1.10;99.90
60033;DHT22;45905;50.570;10.428;2023-02-26T03:56:41;-1.80;99.90
60033;DHT22;45905;50.570;10.428;2023-02-26T03:59:32;-1.80;99.90
60033;DHT22;45905;50.570;10.428;2023-02-26T04:02:54;-1.80;99.90
60033;DHT22;45905;50.570;10.428;2023-02-26T04:05:42;-1.80;99.90
60033;DHT22;45905;50.570;10.428;2023-02-26T04:08:13;-1.80;99.90
60033;DHT22;45905;50.570;10.428;2023-02-26T04:10:44;-1.80;99.90
60033;DHT22;45905;50.570;10.428;2023-02-26T04:13:18;-1.80;99.90
60033;DHT22;45905;50.570;10.428;2023-02-26T04:15:46;-1.80;99.90
60033;DHT22;45905;50.570;10.428;2023-02-26T04:18:13;-1.70;99.90
60033;DHT22;45905;50.570;10.428;2023-02-26T04:20:40;-1.70;99.90
60033;DHT22;45905;50.570;10.428;2023-02-26T04:23:08;-1.70;99.90
60033;DHT22;45905;50.570;10.428;2023-02-26T04:25:36;-1.70;99.90
60033;DHT22;45905;50.570;10.428;2023-02-26T04:28:03;-1.20;99.90
60033;DHT22;45905;50.570;10.428;2023-02-26T04:30:31;-1.70;99.90
60033;DHT22;45905;50.570;10.428;2023-02-26T04:33:00;-1.70;99.90
60033;DHT22;45905;50.570;10.428;2023-02-26T04:35:28;-1.50;99.90
60033;DHT22;45905;50.570;10.428;2023-02-26T04:37:56;-1.70;99.90
60033;DHT22;45905;50.570;10.428;2023-02-26T04:40:23;-1.70;99.90
60033;DHT22;45905;50.570;10.428;2023-02-26T04:42:51;-1.50;99.90
60033;DHT22;45905;50.570;10.428;2023-02-26T04:45:22;-1.70;99.90
60033;DHT22;45905;50.570;10.428;2023-02-26T04:47:50;-1.70;99.90
60033;DHT22;45905;50.570;10.428;2023-02-26T04:50:17;-1.70;99.90
60033;DHT22;45905;50.570;10.428;2023-02-26T04:52:47;-1.70;99.90
60033;DHT22;45905;50.570;10.428;2023-02-26T04:55:14;-1.40;99.90
60033;DHT22;45905;50.570;10.428;2023-02-26T04:57:41;-1.70;99.90
60033;DHT22;45905;50.570;10.428;2023-02-26T05:00:09;-1.70;99.90
60033;DHT22;45905;50.570;10.428;2023-02-26T05:02:38;-1.70;99.90
60033;DHT22;45905;50.570;10.428;2023-02-26T05:05:06;-1.70;99.90
60033;DHT22;45905;50.570;10.428;2023-02-26T05:07:33;-1.70;99.90
60033;DHT22;45905;50.570;10.428;2023-02-26T05:10:00;-1.60;99.90
60033;DHT22;45905;50.570;10.428;2023-02-26T05:12:27;-1.40;99.90
60033;DHT22;45905;50.570;10.428;2023-02-26T05:14:54;-1.30;99.90
60033;DHT22;45905;50.570;10.428;2023-02-26T05:17:22;-1.20;99.90
60033;DHT22;45905;50.570;10.428;2023-02-26T05:19:49;-1.40;99.90
60033;DHT22;45905;50.570;10.428;2023-02-26T05:22:16;-1.70;99.90
60033;DHT22;45905;50.570;10.428;2023-02-26T05:24:45;-1.70;99.90
60033;DHT22;45905;50.570;10.428;2023-02-26T05:27:12;-1.70;99.90
60033;DHT22;45905;50.570;10.428;2023-02-26T05:29:44;-1.50;99.90
60033;DHT22;45905;50.570;10.428;2023-02-26T05:32:13;-1.80;99.90
60033;DHT22;45905;50.570;10.428;2023-02-26T05:34:40;-1.70;99.90
60033;DHT22;45905;50.570;10.428;2023-02-26T05:37:07;-1.10;99.90
60033;DHT22;45905;50.570;10.428;2023-02-26T05:39:34;-1.80;99.90
60033;DHT22;45905;50.570;10.428;2023-02-26T05:42:01;-1.80;99.90
60033;DHT22;45905;50.570;10.428;2023-02-26T05:44:28;-1.70;99.90
60033;DHT22;45905;50.570;10.428;2023-02-26T05:46:56;-1.70;99.90
60033;DHT22;45905;50.570;10.428;2023-02-26T05:49:23;-1.60;99.90
60033;DHT22;45905;50.570;10.428;2023-02-26T05:51:50;-1.70;99.90
60033;DHT22;45905;50.570;10.428;2023-02-26T05:54:17;-1.50;99.90
60033;DHT22;45905;50.570;10.428;2023-02-26T05:56:44;-1.70;99.90
60033;DHT22;45905;50.570;10.428;2023-02-26T05:59:11;-1.70;99.90
60033;DHT22;45905;50.570;10.428;2023-02-26T06:01:38;-1.70;99.90
60033;DHT22;45905;50.570;10.428;2023-02-26T06:04:06;-1.70;99.90
60033;DHT22;45905;50.570;10.428;2023-02-26T06:06:33;-1.70;99.90
60033;DHT22;45905;50.570;10.428;2023-02-26T06:09:01;-1.60;99.90
60033;DHT22;45905;50.570;10.428;2023-02-26T06:11:29;-1.70;99.90
60033;DHT22;45905;50.570;10.428;2023-02-26T06:13:59;-1.70;99.90
60033;DHT22;45905;50.570;10.428;2023-02-26T06:16:26;-1.70;99.90
60033;DHT22;45905;50.570;10.428;2023-02-26T06:18:54;-1.80;99.90
60033;DHT22;45905;50.570;10.428;2023-02-26T06:21:22;-1.70;99.90
60033;DHT22;45905;50.570;10.428;2023-02-26T06:23:49;-1.80;99.90
60033;DHT22;45905;50.570;10.428;2023-02-26T06:26:16;-1.80;99.90
60033;DHT22;45905;50.570;10.428;2023-02-26T06:28:43;-1.80;99.90
60033;DHT22;45905;50.570;10.428;2023-02-26T06:31:10;-1.80;99.90
60033;DHT22;45905;50.570;10.428;2023-02-26T06:33:37;-1.80;99.90
60033;DHT22;45905;50.570;10.428;2023-02-26T06:36:05;-1.80;99.90
60033;DHT22;45905;50.570;10.428;2023-02-26T06:38:32;-1.80;99.90
60033;DHT22;45905;50.570;10.428;2023-02-26T06:40:59;-1.80;99.90
60033;DHT22;45905;50.570;10.428;2023-02-26T06:43:27;-1.70;99.90
60033;DHT22;45905;50.570;10.428;2023-02-26T06:45:57;-1.80;99.90
60033;DHT22;45905;50.570;10.428;2023-02-26T06:48:25;-1.30;99.90
60033;DHT22;45905;50.570;10.428;2023-02-26T06:50:53;-1.80;99.90
60033;DHT22;45905;50.570;10.428;2023-02-26T06:53:20;-1.40;99.90
60033;DHT22;45905;50.570;10.428;2023-02-26T06:55:50;-1.80;99.90
60033;DHT22;45905;50.570;10.428;2023-02-26T06:58:19;-1.60;99.90
60033;DHT22;45905;50.570;10.428;2023-02-26T07:00:46;-1.60;99.90
60033;DHT22;45905;50.570;10.428;2023-02-26T07:03:16;-1.60;99.90
60033;DHT22;45905;50.570;10.428;2023-02-26T07:05:44;-1.40;99.90
60033;DHT22;45905;50.570;10.428;2023-02-26T07:08:12;-1.70;99.90
60033;DHT22;45905;50.570;10.428;2023-02-26T07:10:41;-1.70;99.90
60033;DHT22;45905;50.570;10.428;2023-02-26T07:13:11;-1.70;99.90
60033;DHT22;45905;50.570;10.428;2023-02-26T07:15:39;-1.60;99.90
60033;DHT22;45905;50.570;10.428;2023-02-26T07:18:06;-1.60;99.90
60033;DHT22;45905;50.570;10.428;2023-02-26T07:20:34;-1.60;99.90
60033;DHT22;45905;50.570;10.428;2023-02-26T07:23:01;-1.60;99.90
60033;DHT22;45905;50.570;10.428;2023-02-26T07:25:28;-1.60;99.90
60033;DHT22;45905;50.570;10.428;2023-02-26T07:27:55;-1.60;99.90
60033;DHT22;45905;50.570;10.428;2023-02-26T07:30:24;-1.60;99.90
60033;DHT22;45905;50.570;10.428;2023-02-26T07:32:52;-1.60;99.90
60033;DHT22;45905;50.570;10.428;2023-02-26T07:35:19;-1.60;99.90
60033;DHT22;45905;50.570;10.428;2023-02-26T07:37:46;-1.40;99.90
60033;DHT22;45905;50.570;10.428;2023-02-26T07:40:13;-1.70;99.90
60033;DHT22;45905;50.570;10.428;2023-02-26T07:42:40;-1.60;99.90
60033;DHT22;45905;50.570;10.428;2023-02-26T07:45:08;-1.10;99.90
60033;DHT22;45905;50.570;10.428;2023-02-26T07:47:35;-1.60;99.90
60033;DHT22;45905;50.570;10.428;2023-02-26T07:50:03;-1.60;99.90
60033;DHT22;45905;50.570;10.428;2023-02-26T07:52:31;-1.60;99.90
60033;DHT22;45905;50.570;10.428;2023-02-26T07:54:58;-1.20;99.90
60033;DHT22;45905;50.570;10.428;2023-02-26T07:57:25;-1.50;99.90
60033;DHT22;45905;50.570;10.428;2023-02-26T07:59:53;-1.50;99.90
60033;DHT22;45905;50.570;10.428;2023-02-26T08:02:20;-1.40;99.90
60033;DHT22;45905;50.570;10.428;2023-02-26T08:04:49;-0.60;99.90
60033;DHT22;45905;50.570;10.428;2023-02-26T08:07:16;-1.50;99.90
60033;DHT22;45905;50.570;10.428;2023-02-26T08:09:44;-1.40;99.90
60033;DHT22;45905;50.570;10.428;2023-02-26T08:12:11;-1.40;99.90
60033;DHT22;45905;50.570;10.428;2023-02-26T08:14:38;-1.30;99.90
60033;DHT22;45905;50.570;10.428;2023-02-26T08:17:08;-1.10;99.90
60033;DHT22;45905;50.570;10.428;2023-02-26T08:19:37;-0.30;99.90
60033;DHT22;45905;50.570;10.428;2023-02-26T08:22:04;-1.30;99.90
60033;DHT22;45905;50.570;10.428;2023-02-26T08:24:32;-1.30;99.90
60033;DHT22;45905;50.570;10.428;2023-02-26T08:26:59;-0.40;99.90
60033;DHT22;45905;50.570;10.428;2023-02-26T08:29:26;-1.00;99.90
60033;DHT22;45905;50.570;10.428;2023-02-26T08:31:53;-1.50;99.90
60033;DHT22;45905;50.570;10.428;2023-02-26T08:34:20;-1.40;99.90
60033;DHT22;45905;50.570;10.428;2023-02-26T08:36:47;-1.40;99.90
60033;DHT22;45905;50.570;10.428;2023-02-26T08:39:16;-1.40;99.90
60033;DHT22;45905;50.570;10.428;2023-02-26T08:41:43;-1.40;99.90
60033;DHT22;45905;50.570;10.428;2023-02-26T08:44:10;-1.30;99.90
60033;DHT22;45905;50.570;10.428;2023-02-26T08:46:37;-0.40;99.90
60033;DHT22;45905;50.570;10.428;2023-02-26T08:49:04;-0.60;99.90
60033;DHT22;45905;50.570;10.428;2023-02-26T08:51:32;-1.30;99.90
60033;DHT22;45905;50.570;10.428;2023-02-26T08:53:59;-1.30;99.90
60033;DHT22;45905;50.570;10.428;2023-02-26T08:56:26;-1.30;99.90
60033;DHT22;45905;50.570;10.428;2023-02-26T08:58:53;-1.30;99.90
60033;DHT22;45905;50.570;10.428;2023-02-26T09:01:21;-1.00;99.90
60033;DHT22;45905;50.570;10.428;2023-02-26T09:03:48;-1.20;99.90
60033;DHT22;45905;50.570;10.428;2023-02-26T09:06:15;-1.20;99.90
60033;DHT22;45905;50.570;10.428;2023-02-26T09:08:42;-1.20;99.90
60033;DHT22;45905;50.570;10.428;2023-02-26T09:11:09;-1.00;99.90
60033;DHT22;45905;50.570;10.428;2023-02-26T09:13:36;-1.10;99.90
60033;DHT22;45905;50.570;10.428;2023-02-26T09:16:04;-1.20;99.90
60033;DHT22;45905;50.570;10.428;2023-02-26T09:18:31;-1.10;99.90
60033;DHT22;45905;50.570;10.428;2023-02-26T09:20:58;-1.10;99.90
60033;DHT22;45905;50.570;10.428;2023-02-26T09:23:26;-1.10;99.90
60033;DHT22;45905;50.570;10.428;2023-02-26T09:25:55;-1.10;99.90
60033;DHT22;45905;50.570;10.428;2023-02-26T09:28:24;-0.90;99.90
60033;DHT22;45905;50.570;10.428;2023-02-26T09:30:55;-1.00;99.90
60033;DHT22;45905;50.570;10.428;2023-02-26T09:33:22;-1.00;99.90
60033;DHT22;45905;50.570;10.428;2023-02-26T09:35:50;-0.10;99.90
60033;DHT22;45905;50.570;10.428;2023-02-26T09:38:18;-0.90;99.90
60033;DHT22;45905;50.570;10.428;2023-02-26T09:40:49;-0.90;99.90
60033;DHT22;45905;50.570;10.428;2023-02-26T09:47:01;-0.90;99.90
60033;DHT22;45905;50.570;10.428;2023-02-26T09:49:58;-0.80;99.90
60033;DHT22;45905;50.570;10.428;2023-02-26T09:52:36;-0.80;99.90
60033;DHT22;45905;50.570;10.428;2023-02-26T09:55:15;-0.70;99.90
60033;DHT22;45905;50.570;10.428;2023-02-26T09:57:51;-0.60;99.90
60033;DHT22;45905;50.570;10.428;2023-02-26T10:03:18;-1.30;99.90
60033;DHT22;45905;50.570;10.428;2023-02-26T10:06:14;-0.60;99.90
60033;DHT22;45905;50.570;10.428;2023-02-26T10:12:16;-0.60;99.90
60033;DHT22;45905;50.570;10.428;2023-02-26T10:18:10;-0.60;99.90
60033;DHT22;45905;50.570;10.428;2023-02-26T10:20:54;-0.50;99.90
60033;DHT22;45905;50.570;10.428;2023-02-26T10:23:37;-0.50;99.90
60033;DHT22;45905;50.570;10.428;2023-02-26T10:26:17;-0.40;99.90
60033;DHT22;45905;50.570;10.428;2023-02-26T10:29:27;-0.40;99.90
60033;DHT22;45905;50.570;10.428;2023-02-26T10:32:50;-0.30;99.90
60033;DHT22;45905;50.570;10.428;2023-02-26T10:35:09;-0.30;99.90
60033;DHT22;45905;50.570;10.428;2023-02-26T10:40:46;-0.30;99.90
60033;DHT22;45905;50.570;10.428;2023-02-26T10:43:34;-0.20;99.90
60033;DHT22;45905;50.570;10.428;2023-02-26T10:51:41;-0.10;99.90
60033;DHT22;45905;50.570;10.428;2023-02-26T10:54:34;-0.10;99.90
60033;DHT22;45905;50.570;10.428;2023-02-26T10:57:06;0.00;99.90
60033;DHT22;45905;50.570;10.428;2023-02-26T10:59:42;0.00;99.90
60033;DHT22;45905;50.570;10.428;2023-02-26T11:05:38;-0.10;99.90
60033;DHT22;45905;50.570;10.428;2023-02-26T11:08:19;-0.10;99.90
60033;DHT22;45905;50.570;10.428;2023-02-26T11:10:54;-0.20;99.90
60033;DHT22;45905;50.570;10.428;2023-02-26T11:13:37;-0.20;99.90
60033;DHT22;45905;50.570;10.428;2023-02-26T11:16:13;-0.20;99.90
60033;DHT22;45905;50.570;10.428;2023-02-26T11:18:52;-0.20;99.90
60033;DHT22;45905;50.570;10.428;2023-02-26T11:21:32;-0.10;99.90
60033;DHT22;45905;50.570;10.428;2023-02-26T11:26:35;-0.10;99.90
60033;DHT22;45905;50.570;10.428;2023-02-26T11:29:04;-0.10;99.90
60033;DHT22;45905;50.570;10.428;2023-02-26T11:31:32;0.00;99.90
60033;DHT22;45905;50.570;10.428;2023-02-26T11:34:04;0.00;99.90
60033;DHT22;45905;50.570;10.428;2023-02-26T11:36:38;0.10;99.90
60033;DHT22;45905;50.570;10.428;2023-02-26T11:39:21;0.00;99.90
60033;DHT22;45905;50.570;10.428;2023-02-26T11:41:55;0.00;99.90
60033;DHT22;45905;50.570;10.428;2023-02-26T11:44:44;0.10;99.90
60033;DHT22;45905;50.570;10.428;2023-02-26T11:47:17;0.10;99.90
60033;DHT22;45905;50.570;10.428;2023-02-26T11:50:02;0.10;99.90
60033;DHT22;45905;50.570;10.428;2023-02-26T11:52:35;0.00;99.90
60033;DHT22;45905;50.570;10.428;2023-02-26T11:55:42;0.10;99.90
60033;DHT22;45905;50.570;10.428;2023-02-26T11:58:18;0.60;99.90
60033;DHT22;45905;50.570;10.428;2023-02-26T12:00:53;0.10;99.90
60033;DHT22;45905;50.570;10.428;2023-02-26T12:03:31;0.00;99.90
60033;DHT22;45905;50.570;10.428;2023-02-26T12:06:01;0.00;99.90
60033;DHT22;45905;50.570;10.428;2023-02-26T12:08:34;-0.20;99.90
60033;DHT22;45905;50.570;10.428;2023-02-26T12:11:17;0.00;99.90
60033;DHT22;45905;50.570;10.428;2023-02-26T12:17:30;0.00;99.90
60033;DHT22;45905;50.570;10.428;2023-02-26T12:20:26;0.00;99.90
60033;DHT22;45905;50.570;10.428;2023-02-26T12:26:29;0.40;99.90
60033;DHT22;45905;50.570;10.428;2023-02-26T12:30:15;0.00;99.90
60033;DHT22;45905;50.570;10.428;2023-02-26T12:32:55;0.00;99.90
60033;DHT22;45905;50.570;10.428;2023-02-26T12:36:10;0.00;99.90
60033;DHT22;45905;50.570;10.428;2023-02-26T12:50:55;0.30;99.90
60033;DHT22;45905;50.570;10.428;2023-02-26T13:01:58;0.60;99.90
60033;DHT22;45905;50.570;10.428;2023-02-26T13:10:48;0.50;99.90
60033;DHT22;45905;50.570;10.428;2023-02-26T13:22:16;0.60;99.90
60033;DHT22;45905;50.570;10.428;2023-02-26T13:25:02;0.60;99.90
60033;DHT22;45905;50.570;10.428;2023-02-26T13:27:38;0.60;99.90
60033;DHT22;45905;50.570;10.428;2023-02-26T13:30:22;0.60;99.90
60033;DHT22;45905;50.570;10.428;2023-02-26T13:32:55;0.70;99.90
60033;DHT22;45905;50.570;10.428;2023-02-26T13:35:25;0.60;99.70
60033;DHT22;45905;50.570;10.428;2023-02-26T13:38:00;0.70;99.90
60033;DHT22;45905;50.570;10.428;2023-02-26T13:43:54;0.70;99.90
60033;DHT22;45905;50.570;10.428;2023-02-26T13:49:22;0.70;99.80
60033;DHT22;45905;50.570;10.428;2023-02-26T13:51:54;0.70;99.30
60033;DHT22;45905;50.570;10.428;2023-02-26T13:54:43;0.90;99.70
60033;DHT22;45905;50.570;10.428;2023-02-26T14:03:28;0.80;99.60
60033;DHT22;45905;50.570;10.428;2023-02-26T14:09:42;0.80;99.50
60033;DHT22;45905;50.570;10.428;2023-02-26T14:14:43;0.80;98.50
60033;DHT22;45905;50.570;10.428;2023-02-26T14:20:27;0.80;98.80
60033;DHT22;45905;50.570;10.428;2023-02-26T14:25:45;0.80;98.50
60033;DHT22;45905;50.570;10.428;2023-02-26T14:28:41;0.80;97.50
60033;DHT22;45905;50.570;10.428;2023-02-26T14:33:59;1.10;96.90
60033;DHT22;45905;50.570;10.428;2023-02-26T14:36:39;0.90;97.10
60033;DHT22;45905;50.570;10.428;2023-02-26T14:47:44;0.80;96.10
60033;DHT22;45905;50.570;10.428;2023-02-26T14:50:17;0.80;96.50
60033;DHT22;45905;50.570;10.428;2023-02-26T14:53:18;0.80;96.10
60033;DHT22;45905;50.570;10.428;2023-02-26T15:02:27;0.80;97.30
60033;DHT22;45905;50.570;10.428;2023-02-26T15:05:16;0.80;97.40
60033;DHT22;45905;50.570;10.428;2023-02-26T15:08:02;0.80;97.00
60033;DHT22;45905;50.570;10.428;2023-02-26T15:25:37;0.90;96.20
60033;DHT22;45905;50.570;10.428;2023-02-26T15:28:16;0.90;96.20
60033;DHT22;45905;50.570;10.428;2023-02-26T15:30:50;0.90;96.30
60033;DHT22;45905;50.570;10.428;2023-02-26T15:33:19;1.10;96.00
60033;DHT22;45905;50.570;10.428;2023-02-26T15:35:50;0.80;95.70
60033;DHT22;45905;50.570;10.428;2023-02-26T15:38:19;0.80;95.60
60033;DHT22;45905;50.570;10.428;2023-02-26T15:40:48;0.80;95.50
60033;DHT22;45905;50.570;10.428;2023-02-26T15:43:22;0.80;95.20
60033;DHT22;45905;50.570;10.428;2023-02-26T15:45:55;0.70;95.30
60033;DHT22;45905;50.570;10.428;2023-02-26T15:48:28;0.80;95.60
60033;DHT22;45905;50.570;10.428;2023-02-26T15:51:02;0.70;95.50
60033;DHT22;45905;50.570;10.428;2023-02-26T15:53:41;0.70;94.90
60033;DHT22;45905;50.570;10.428;2023-02-26T15:56:27;0.60;94.50
60033;DHT22;45905;50.570;10.428;2023-02-26T15:58:58;0.60;94.40
60033;DHT22;45905;50.570;10.428;2023-02-26T16:01:28;0.60;94.50
60033;DHT22;45905;50.570;10.428;2023-02-26T16:04:00;0.50;94.70
60033;DHT22;45905;50.570;10.428;2023-02-26T16:06:46;0.50;94.70
60033;DHT22;45905;50.570;10.428;2023-02-26T16:09:32;0.80;95.00
60033;DHT22;45905;50.570;10.428;2023-02-26T16:12:08;0.40;94.90
60033;DHT22;45905;50.570;10.428;2023-02-26T16:14:40;0.40;95.20
60033;DHT22;45905;50.570;10.428;2023-02-26T16:17:15;0.40;95.40
60033;DHT22;45905;50.570;10.428;2023-02-26T16:19:49;0.50;95.50
60033;DHT22;45905;50.570;10.428;2023-02-26T16:22:39;0.40;95.60
60033;DHT22;45905;50.570;10.428;2023-02-26T16:25:21;0.40;95.70
60033;DHT22;45905;50.570;10.428;2023-02-26T16:28:14;0.40;95.90
60033;DHT22;45905;50.570;10.428;2023-02-26T16:30:47;0.50;96.00
60033;DHT22;45905;50.570;10.428;2023-02-26T16:33:22;0.50;95.80
60033;DHT22;45905;50.570;10.428;2023-02-26T16:36:10;0.30;95.70
60033;DHT22;45905;50.570;10.428;2023-02-26T16:38:49;0.30;95.70
60033;DHT22;45905;50.570;10.428;2023-02-26T16:41:38;0.30;96.00
60033;DHT22;45905;50.570;10.428;2023-02-26T16:46:58;0.30;96.00
60033;DHT22;45905;50.570;10.428;2023-02-26T16:49:35;0.20;95.90
60033;DHT22;45905;50.570;10.428;2023-02-26T16:52:04;0.30;96.00
60033;DHT22;45905;50.570;10.428;2023-02-26T16:54:35;0.20;95.90
60033;DHT22;45905;50.570;10.428;2023-02-26T16:57:16;0.10;95.70
60033;DHT22;45905;50.570;10.428;2023-02-26T16:59:54;0.10;95.90
60033;DHT22;45905;50.570;10.428;2023-02-26T17:02:28;0.10;96.00
60033;DHT22;45905;50.570;10.428;2023-02-26T17:05:25;0.10;95.90
60033;DHT22;45905;50.570;10.428;2023-02-26T17:08:18;0.00;95.90
60033;DHT22;45905;50.570;10.428;2023-02-26T17:11:01;-0.10;95.90
60033;DHT22;45905;50.570;10.428;2023-02-26T17:16:45;-0.10;96.00
60033;DHT22;45905;50.570;10.428;2023-02-26T17:19:13;-0.10;96.00
60033;DHT22;45905;50.570;10.428;2023-02-26T17:21:51;0.00;96.20
60033;DHT22;45905;50.570;10.428;2023-02-26T17:24:33;-0.20;96.20
60033;DHT22;45905;50.570;10.428;2023-02-26T17:27:03;-0.10;96.30
60033;DHT22;45905;50.570;10.428;2023-02-26T17:29:34;-0.20;96.40
60033;DHT22;45905;50.570;10.428;2023-02-26T17:32:04;-0.20;96.60
60033;DHT22;45905;50.570;10.428;2023-02-26T17:34:33;-0.20;96.60
60033;DHT22;45905;50.570;10.428;2023-02-26T17:37:00;-0.10;96.70
60033;DHT22;45905;50.570;10.428;2023-02-26T17:39:31;-0.30;96.80
60033;DHT22;45905;50.570;10.428;2023-02-26T17:41:58;-0.30;96.90
60033;DHT22;45905;50.570;10.428;2023-02-26T17:44:25;-0.40;96.80
60033;DHT22;45905;50.570;10.428;2023-02-26T17:46:52;-0.40;96.90
60033;DHT22;45905;50.570;10.428;2023-02-26T17:49:19;-0.40;96.90
60033;DHT22;45905;50.570;10.428;2023-02-26T17:51:47;-0.50;96.90
60033;DHT22;45905;50.570;10.428;2023-02-26T17:54:14;-0.60;96.90
60033;DHT22;45905;50.570;10.428;2023-02-26T17:56:41;-0.50;97.20
60033;DHT22;45905;50.570;10.428;2023-02-26T17:59:10;-0.50;97.30
60033;DHT22;45905;50.570;10.428;2023-02-26T18:01:38;-0.80;97.10
60033;DHT22;45905;50.570;10.428;2023-02-26T18:04:06;-0.80;97.30
60033;DHT22;45905;50.570;10.428;2023-02-26T18:06:35;-0.80;97.30
60033;DHT22;45905;50.570;10.428;2023-02-26T18:09:04;-0.80;97.50
60033;DHT22;45905;50.570;10.428;2023-02-26T18:11:32;-0.40;97.70
60033;DHT22;45905;50.570;10.428;2023-02-26T18:13:59;-0.90;97.60
60033;DHT22;45905;50.570;10.428;2023-02-26T18:16:33;-0.90;97.70
60033;DHT22;45905;50.570;10.428;2023-02-26T18:19:06;-0.60;97.90
60033;DHT22;45905;50.570;10.428;2023-02-26T18:21:34;-1.00;97.80
60033;DHT22;45905;50.570;10.428;2023-02-26T18:24:01;-1.00;97.70
60033;DHT22;45905;50.570;10.428;2023-02-26T18:26:31;-1.20;97.80
60033;DHT22;45905;50.570;10.428;2023-02-26T18:28:59;-1.00;97.90
60033;DHT22;45905;50.570;10.428;2023-02-26T18:31:27;-0.90;98.00
60033;DHT22;45905;50.570;10.428;2023-02-26T18:34:02;-1.00;98.10
60033;DHT22;45905;50.570;10.428;2023-02-26T18:36:34;-1.10;98.00
60033;DHT22;45905;50.570;10.428;2023-02-26T18:39:07;-1.00;98.20
60033;DHT22;45905;50.570;10.428;2023-02-26T18:41:38;-1.00;98.20
60033;DHT22;45905;50.570;10.428;2023-02-26T18:44:05;-1.10;98.20
60033;DHT22;45905;50.570;10.428;2023-02-26T18:46:32;-1.10;98.20
60033;DHT22;45905;50.570;10.428;2023-02-26T18:49:02;-1.10;98.40
60033;DHT22;45905;50.570;10.428;2023-02-26T18:51:29;-1.10;98.60
60033;DHT22;45905;50.570;10.428;2023-02-26T18:53:57;-1.00;98.70
60033;DHT22;45905;50.570;10.428;2023-02-26T18:56:24;-0.80;98.70
60033;DHT22;45905;50.570;10.428;2023-02-26T18:58:51;-1.10;98.40
60033;DHT22;45905;50.570;10.428;2023-02-26T19:01:18;-1.00;98.30
60033;DHT22;45905;50.570;10.428;2023-02-26T19:03:45;-0.50;98.50
60033;DHT22;45905;50.570;10.428;2023-02-26T19:06:13;-1.00;98.20